createdAt,value
2022-11-16T00:01:19.181Z,11.03
2022-11-16T00:06:16.655Z,11.00
2022-11-16T00:11:17.494Z,11.18
2022-11-16T00:16:16.570Z,11.42
2022-11-16T00:21:13.567Z,11.26
2022-11-16T00:26:12.848Z,10.89
2022-11-16T00:31:11.236Z,10.88
2022-11-16T00:36:11.521Z,11.50
2022-11-16T00:41:09.456Z,11.38
2022-11-16T00:46:06.697Z,11.51
2022-11-16T00:51:05.171Z,11.37
2022-11-16T00:56:02.751Z,11.30
2022-11-16T01:01:06.360Z,10.90
2022-11-16T01:06:06.137Z,11.05
2022-11-16T01:11:17.835Z,10.82
2022-11-16T01:16:15.742Z,10.82
2022-11-16T01:21:13.657Z,11.43
2022-11-16T01:26:10.679Z,11.33
2022-11-16T01:31:10.096Z,11.28
2022-11-16T01:36:13.862Z,10.95
2022-11-16T01:41:14.878Z,11.42
2022-11-16T01:46:14.732Z,11.17
2022-11-16T01:51:11.865Z,11.16
2022-11-16T01:56:09.184Z,10.96
2022-11-16T02:01:15.949Z,11.22
2022-11-16T02:06:32.474Z,10.98
2022-11-16T02:11:57.088Z,10.87
2022-11-16T02:16:58.728Z,11.30
2022-11-16T02:22:14.188Z,11.13
2022-11-16T02:27:26.643Z,10.93
2022-11-16T02:32:30.579Z,10.89
2022-11-16T02:37:33.279Z,10.87
2022-11-16T02:42:35.177Z,11.10
2022-11-16T02:47:36.163Z,11.27
2022-11-16T02:52:39.543Z,11.23
2022-11-16T02:57:44.559Z,10.88
2022-11-16T03:02:50.463Z,11.12
2022-11-16T03:07:53.156Z,11.29
2022-11-16T03:12:50.295Z,11.31
2022-11-16T03:17:51.702Z,11.18
2022-11-16T03:22:55.184Z,11.24
2022-11-16T03:28:02.495Z,11.23
2022-11-16T03:33:08.991Z,11.18
2022-11-16T03:38:09.759Z,11.19
2022-11-16T03:43:11.900Z,11.36
2022-11-16T03:48:11.882Z,11.12
2022-11-16T03:53:08.974Z,11.16
2022-11-16T03:58:08.336Z,11.41
2022-11-16T04:03:08.091Z,10.86
2022-11-16T04:08:24.298Z,11.43
2022-11-16T04:13:46.702Z,11.36
2022-11-16T04:19:01.847Z,11.27
2022-11-16T04:24:12.198Z,11.07
2022-11-16T04:29:09.567Z,11.37
2022-11-16T04:34:27.012Z,11.38
2022-11-16T04:39:28.397Z,11.24
2022-11-16T04:44:46.296Z,10.99
2022-11-16T04:49:43.366Z,11.16
2022-11-16T04:54:41.520Z,11.35
2022-11-16T04:59:39.714Z,11.18
2022-11-16T05:04:38.456Z,11.01
2022-11-16T05:09:40.946Z,10.97
2022-11-16T05:14:38.948Z,10.93
2022-11-16T05:19:54.462Z,11.39
2022-11-16T05:24:53.877Z,11.26
2022-11-16T05:29:52.260Z,11.31
2022-11-16T05:34:53.092Z,11.43
2022-11-16T05:39:50.866Z,11.35
2022-11-16T05:44:50.080Z,11.52
2022-11-16T05:49:48.926Z,11.40
2022-11-16T05:54:46.050Z,11.46
2022-11-16T05:59:43.399Z,11.62
2022-11-16T06:04:40.281Z,11.50
2022-11-16T06:09:39.247Z,11.63
2022-11-16T06:14:44.423Z,11.66
2022-11-16T06:19:41.740Z,11.60
2022-11-16T06:24:39.805Z,11.55
2022-11-16T06:29:37.097Z,11.29
2022-11-16T06:34:34.129Z,11.66
2022-11-16T06:39:32.370Z,11.82
2022-11-16T06:44:31.379Z,12.19
2022-11-16T06:49:32.087Z,12.07
2022-11-16T06:54:32.070Z,12.35
2022-11-16T06:59:29.954Z,12.39
2022-11-16T07:04:27.095Z,12.00
2022-11-16T07:09:28.266Z,12.20
2022-11-16T07:14:26.239Z,12.48
2022-11-16T07:19:24.458Z,12.33
2022-11-16T07:24:21.697Z,12.28
2022-11-16T07:29:20.918Z,12.72
2022-11-16T07:34:37.674Z,12.62
2022-11-16T07:39:42.113Z,12.91
2022-11-16T07:44:40.148Z,12.79
2022-11-16T07:49:41.232Z,13.03
2022-11-16T07:54:45.547Z,12.94
2022-11-16T07:59:43.859Z,13.08
2022-11-16T08:04:43.013Z,12.80
2022-11-16T08:09:50.153Z,12.58
2022-11-16T08:14:47.342Z,13.20
2022-11-16T08:19:46.305Z,13.13
2022-11-16T08:24:46.257Z,12.94
2022-11-16T08:29:43.538Z,12.95
2022-11-16T08:34:40.748Z,13.34
2022-11-16T08:39:39.045Z,13.33
2022-11-16T08:44:39.196Z,13.45
2022-11-16T08:49:44.006Z,13.46
2022-11-16T08:54:46.607Z,13.34
2022-11-16T08:59:43.962Z,13.57
2022-11-16T09:04:46.844Z,13.49
2022-11-16T09:09:48.343Z,13.56
2022-11-16T09:14:45.503Z,13.55
2022-11-16T09:19:42.400Z,13.71
2022-11-16T09:24:39.480Z,13.81
2022-11-16T09:29:37.455Z,13.60
2022-11-16T09:34:34.771Z,13.79
2022-11-16T09:39:32.605Z,13.59
2022-11-16T09:44:48.752Z,13.90
2022-11-16T09:49:51.427Z,13.71
2022-11-16T09:54:50.520Z,13.58
2022-11-16T09:59:52.238Z,13.81
2022-11-16T10:04:58.674Z,14.08
2022-11-16T10:09:56.460Z,14.12
2022-11-16T10:15:32.507Z,14.23
2022-11-16T10:20:41.187Z,14.59
2022-11-16T10:25:43.454Z,13.92
2022-11-16T10:30:48.710Z,14.59
2022-11-16T10:35:51.407Z,14.89
2022-11-16T10:40:52.535Z,14.60
2022-11-16T10:45:57.310Z,15.21
2022-11-16T10:50:54.579Z,14.87
2022-11-16T10:56:10.444Z,15.41
2022-11-16T11:01:11.077Z,15.15
2022-11-16T11:06:13.225Z,15.12
2022-11-16T11:11:38.987Z,15.27
2022-11-16T11:16:36.431Z,15.48
2022-11-16T11:21:33.317Z,15.12
2022-11-16T11:26:36.874Z,15.46
2022-11-16T11:31:39.907Z,14.81
2022-11-16T11:36:41.413Z,15.25
2022-11-16T11:41:40.482Z,15.53
2022-11-16T11:47:28.586Z,15.45
2022-11-16T11:52:03.157Z,15.36
2022-11-16T11:57:03.194Z,14.70
2022-11-16T12:02:19.456Z,15.28
2022-11-16T12:07:31.781Z,15.15
2022-11-16T12:12:49.278Z,15.12
2022-11-16T12:17:56.987Z,15.06
2022-11-16T12:23:19.465Z,15.39
2022-11-16T12:28:33.918Z,15.04
2022-11-16T12:33:47.482Z,15.16
2022-11-16T12:38:57.853Z,15.14
2022-11-16T12:44:20.143Z,15.29
2022-11-16T12:49:36.839Z,15.25
2022-11-16T12:55:24.290Z,15.20
2022-11-16T13:00:12.699Z,14.53
2022-11-16T13:05:18.205Z,14.93
2022-11-16T13:10:19.996Z,14.87
2022-11-16T13:15:20.867Z,14.86
2022-11-16T13:20:35.939Z,14.75
2022-11-16T13:25:43.646Z,14.45
2022-11-16T13:30:54.043Z,14.14
2022-11-16T13:35:52.287Z,13.50
2022-11-16T13:40:49.746Z,13.95
2022-11-16T13:45:57.200Z,13.92
2022-11-16T13:50:56.762Z,13.07
2022-11-16T13:56:01.974Z,13.61
2022-11-16T14:01:04.345Z,13.32
2022-11-16T14:06:50.852Z,13.05
2022-11-16T14:11:49.538Z,12.70
2022-11-16T14:16:50.784Z,12.16
2022-11-16T14:21:54.929Z,12.75
2022-11-16T14:27:04.114Z,12.39
2022-11-16T14:32:03.688Z,12.44
2022-11-16T14:37:00.995Z,12.29
2022-11-16T14:42:01.701Z,12.04
2022-11-16T14:46:59.391Z,11.59
2022-11-16T14:52:02.873Z,11.22
2022-11-16T14:57:05.210Z,11.74
2022-11-16T15:02:21.252Z,11.64
2022-11-16T15:07:24.825Z,11.16
2022-11-16T15:12:45.895Z,11.34
2022-11-16T15:17:46.073Z,10.82
2022-11-16T15:22:46.711Z,11.22
2022-11-16T15:27:46.159Z,11.11
2022-11-16T15:32:44.846Z,10.89
2022-11-16T15:37:42.186Z,10.55
2022-11-16T15:42:41.699Z,10.27
2022-11-16T15:47:42.390Z,10.76
2022-11-16T15:52:44.024Z,10.20
2022-11-16T15:57:46.465Z,10.27
2022-11-16T16:02:45.119Z,10.09
2022-11-16T16:07:43.968Z,10.75
2022-11-16T16:12:51.519Z,10.35
2022-11-16T16:17:50.672Z,10.11
2022-11-16T16:22:50.085Z,10.01
2022-11-16T16:27:47.335Z,10.08
2022-11-16T16:32:54.563Z,10.43
2022-11-16T16:37:58.442Z,10.22
2022-11-16T16:42:57.309Z,10.43
2022-11-16T16:47:55.278Z,10.72
2022-11-16T16:52:52.603Z,10.70
2022-11-16T16:57:50.472Z,10.67
2022-11-16T17:02:49.531Z,10.96
2022-11-16T17:07:51.113Z,10.57
2022-11-16T17:12:49.403Z,10.62
2022-11-16T17:17:46.735Z,11.12
2022-11-16T17:22:44.117Z,11.03
2022-11-16T17:27:44.999Z,11.25
2022-11-16T17:32:42.839Z,10.80
2022-11-16T17:37:47.885Z,10.68
2022-11-16T17:42:49.077Z,10.77
2022-11-16T17:47:46.457Z,11.09
2022-11-16T17:52:46.216Z,11.31
2022-11-16T17:57:51.004Z,11.32
2022-11-16T18:02:48.167Z,11.09
2022-11-16T18:07:49.555Z,10.63
2022-11-16T18:12:52.362Z,11.32
2022-11-16T18:17:52.386Z,10.65
2022-11-16T18:22:53.048Z,10.41
2022-11-16T18:27:54.782Z,11.05
2022-11-16T18:32:51.835Z,10.56
2022-11-16T18:37:49.153Z,11.23
2022-11-16T18:42:46.357Z,11.13
2022-11-16T18:47:44.216Z,11.07
2022-11-16T18:52:44.951Z,10.83
2022-11-16T18:57:42.355Z,10.71
2022-11-16T19:02:39.833Z,11.10
2022-11-16T19:07:37.761Z,11.13
2022-11-16T19:12:37.090Z,11.72
2022-11-16T19:17:53.187Z,11.42
2022-11-16T19:22:54.060Z,11.79
2022-11-16T19:27:51.258Z,11.06
2022-11-16T19:32:48.294Z,11.54
2022-11-16T19:37:45.554Z,10.84
2022-11-16T19:42:43.681Z,11.26
2022-11-16T19:47:40.947Z,10.66
2022-11-16T19:52:38.377Z,11.00
2022-11-16T19:57:35.514Z,10.90
2022-11-16T20:02:33.412Z,11.36
2022-11-16T20:07:30.425Z,11.02
2022-11-16T20:12:27.364Z,11.68
2022-11-16T20:17:24.333Z,11.67
2022-11-16T20:22:22.287Z,11.77
2022-11-16T20:27:19.257Z,11.57
2022-11-16T20:32:16.328Z,11.27
2022-11-16T20:37:13.452Z,11.06
2022-11-16T20:42:11.642Z,10.22
2022-11-16T20:47:08.909Z,10.26
2022-11-16T20:52:05.973Z,10.37
2022-11-16T20:57:02.937Z,10.99
2022-11-16T21:02:01.326Z,11.00
2022-11-16T21:06:58.296Z,10.90
2022-11-16T21:12:13.479Z,11.03
2022-11-16T21:17:11.249Z,10.90
2022-11-16T21:22:08.198Z,11.53
2022-11-16T21:27:05.055Z,11.42
2022-11-16T21:32:02.268Z,11.88
2022-11-16T21:36:59.820Z,11.91
2022-11-16T21:41:58.229Z,11.95
2022-11-16T21:46:55.092Z,12.24
2022-11-16T21:51:52.755Z,12.08
2022-11-16T21:56:50.877Z,12.35
2022-11-16T22:02:02.086Z,11.71
2022-11-16T22:07:17.531Z,11.83
2022-11-16T22:12:15.547Z,12.20
2022-11-16T22:17:12.618Z,11.85
2022-11-16T22:22:09.678Z,11.78
2022-11-16T22:27:06.628Z,12.37
2022-11-16T22:32:04.971Z,12.37
2022-11-16T22:37:02.041Z,12.26
2022-11-16T22:41:58.963Z,11.97
2022-11-16T22:46:55.866Z,12.31
2022-11-16T22:51:53.687Z,12.20
2022-11-16T22:56:50.783Z,12.29
2022-11-16T23:01:47.817Z,12.32
2022-11-16T23:06:44.904Z,12.25
2022-11-16T23:12:03.652Z,12.26
2022-11-16T23:17:01.479Z,11.96
2022-11-16T23:22:16.632Z,12.06
2022-11-16T23:27:30.174Z,12.05
2022-11-16T23:32:27.538Z,11.66
2022-11-16T23:37:24.622Z,11.82
2022-11-16T23:42:40.263Z,11.89
2022-11-16T23:47:37.178Z,12.07
2022-11-16T23:52:34.337Z,12.08
2022-11-16T23:57:32.710Z,11.76
